createdAt,value
2022-10-07T00:01:12.033Z,157865.97
2022-10-07T00:03:40.252Z,157851.38
2022-10-07T00:06:12.608Z,157861.97
2022-10-07T00:08:43.263Z,157865.97
2022-10-07T00:11:17.778Z,157863.34
2022-10-07T00:13:48.000Z,157864.66
2022-10-07T00:16:21.880Z,157863.34
2022-10-07T00:18:50.994Z,157856.69
2022-10-07T00:21:20.541Z,157844.72
2022-10-07T00:23:49.468Z,157846.03
2022-10-07T00:26:23.781Z,157848.72
2022-10-07T00:28:52.339Z,157840.72
2022-10-07T00:31:25.843Z,157842.06
2022-10-07T00:33:56.127Z,157842.06
2022-10-07T00:36:27.151Z,157838.06
2022-10-07T00:39:00.853Z,157830.09
2022-10-07T00:41:38.152Z,157822.13
2022-10-07T00:44:43.332Z,157810.16
2022-10-07T00:47:12.922Z,157806.19
2022-10-07T00:50:05.885Z,157790.22
2022-10-07T00:52:37.643Z,157794.22
2022-10-07T00:55:08.344Z,157780.94
2022-10-07T00:57:37.984Z,157767.63
2022-10-07T01:00:07.494Z,157771.63
2022-10-07T01:02:38.173Z,157755.66
2022-10-07T01:05:08.608Z,157741.03
2022-10-07T01:07:37.603Z,157731.75
2022-10-07T01:10:07.431Z,157718.47
2022-10-07T01:12:40.981Z,157706.50
2022-10-07T01:15:40.619Z,157699.84
2022-10-07T01:18:26.753Z,157698.53
2022-10-07T01:20:59.985Z,157695.91
2022-10-07T01:23:54.062Z,157695.91
2022-10-07T01:26:31.660Z,157685.25
2022-10-07T01:29:04.632Z,157681.28
2022-10-07T01:31:58.442Z,157677.28
2022-10-07T01:34:26.882Z,157673.31
2022-10-07T01:36:57.545Z,157658.66
2022-10-07T01:39:31.293Z,157660.03
2022-10-07T01:41:59.718Z,157661.34
2022-10-07T01:44:32.068Z,157649.38
2022-10-07T01:47:00.382Z,157637.41
2022-10-07T01:49:29.535Z,157642.72
2022-10-07T01:52:24.939Z,157633.44
2022-10-07T01:55:17.919Z,157621.47
2022-10-07T01:58:22.349Z,157600.22
2022-10-07T02:01:26.017Z,157606.88
2022-10-07T02:04:14.180Z,157605.56
2022-10-07T02:07:09.644Z,157586.94
2022-10-07T02:09:46.889Z,157602.94
2022-10-07T02:12:16.317Z,157600.22
2022-10-07T02:15:04.497Z,157590.94
2022-10-07T02:17:35.281Z,157586.94
2022-10-07T02:20:04.774Z,157578.97
2022-10-07T02:22:33.599Z,157571.03
2022-10-07T02:25:02.240Z,157556.41
2022-10-07T02:27:35.429Z,157553.78
2022-10-07T02:30:08.247Z,157544.44
2022-10-07T02:32:36.918Z,157555.09
2022-10-07T02:35:13.293Z,157545.78
2022-10-07T02:37:43.111Z,157521.88
2022-10-07T02:40:12.737Z,157525.91
2022-10-07T02:42:58.659Z,157524.53
2022-10-07T02:45:39.298Z,157515.25
2022-10-07T02:48:15.560Z,157507.28
2022-10-07T02:50:47.400Z,157509.91
2022-10-07T02:53:16.957Z,157503.28
2022-10-07T02:55:48.549Z,157504.66
2022-10-07T02:58:16.905Z,157505.97
2022-10-07T03:00:48.276Z,157500.66
2022-10-07T03:03:17.077Z,157501.97
2022-10-07T03:05:53.245Z,157494.00
2022-10-07T03:08:22.584Z,157487.38
2022-10-07T03:10:52.264Z,157491.38
2022-10-07T03:13:20.334Z,157484.72
2022-10-07T03:15:53.202Z,157479.41
2022-10-07T03:18:29.512Z,157480.72
2022-10-07T03:21:12.924Z,157476.75
2022-10-07T03:23:42.017Z,157474.06
2022-10-07T03:26:11.843Z,157464.81
2022-10-07T03:28:40.576Z,157452.84
2022-10-07T03:31:10.511Z,157455.53
2022-10-07T03:33:43.950Z,157451.53
2022-10-07T03:36:13.144Z,157436.91
2022-10-07T03:38:43.566Z,157434.22
2022-10-07T03:41:13.181Z,157440.88
2022-10-07T03:43:41.643Z,157455.53
2022-10-07T03:46:11.468Z,157456.84
2022-10-07T03:48:40.331Z,157459.47
2022-10-07T03:51:09.608Z,157459.47
2022-10-07T03:53:40.423Z,157454.16
2022-10-07T03:56:09.106Z,157454.16
2022-10-07T03:58:39.584Z,157446.19
2022-10-07T04:01:12.269Z,157439.56
2022-10-07T04:03:46.772Z,157428.97
2022-10-07T04:06:15.383Z,157421.00
2022-10-07T04:08:44.986Z,157409.03
2022-10-07T04:11:14.320Z,157401.09
2022-10-07T04:13:45.265Z,157403.72
2022-10-07T04:16:13.858Z,157397.09
2022-10-07T04:18:43.078Z,157411.69
2022-10-07T04:21:11.521Z,157405.03
2022-10-07T04:23:41.504Z,157401.09
2022-10-07T04:26:11.655Z,157387.81
2022-10-07T04:28:43.484Z,157377.16
2022-10-07T04:31:14.934Z,157374.53
2022-10-07T04:33:48.661Z,157374.53
2022-10-07T04:36:22.322Z,157381.16
2022-10-07T04:38:57.014Z,157379.84
2022-10-07T04:41:29.499Z,157367.88
2022-10-07T04:43:58.213Z,157374.53
2022-10-07T04:46:30.036Z,157363.88
2022-10-07T04:49:05.309Z,157367.88
2022-10-07T04:51:33.485Z,157362.56
2022-10-07T04:54:02.765Z,157367.88
2022-10-07T04:56:37.494Z,157362.56
2022-10-07T04:59:08.152Z,157358.63
2022-10-07T05:01:37.791Z,157361.25
2022-10-07T05:04:06.147Z,157366.56
2022-10-07T05:06:35.378Z,157371.88
2022-10-07T05:09:03.998Z,157366.56
2022-10-07T05:11:35.623Z,157377.16
2022-10-07T05:14:09.455Z,157379.84
2022-10-07T05:16:38.092Z,157382.47
2022-10-07T05:19:07.181Z,157395.75
2022-10-07T05:21:34.924Z,157395.75
2022-10-07T05:24:04.804Z,157417.00
2022-10-07T05:26:37.331Z,157443.56
2022-10-07T05:29:07.740Z,157463.47
2022-10-07T05:31:44.227Z,157488.69
2022-10-07T05:34:15.315Z,157544.44
2022-10-07T05:36:44.556Z,157621.47
2022-10-07T05:39:13.869Z,157709.19
2022-10-07T05:41:55.961Z,157782.25
2022-10-07T05:44:30.013Z,157900.53
2022-10-07T05:46:59.559Z,158020.19
2022-10-07T05:49:28.166Z,158149.25
2022-10-07T05:51:56.986Z,158257.06
2022-10-07T05:54:25.684Z,158363.50
2022-10-07T05:56:55.248Z,158458.00
2022-10-07T05:59:24.497Z,158531.28
2022-10-07T06:02:00.385Z,158633.81
2022-10-07T06:04:29.681Z,158747.03
2022-10-07T06:06:58.078Z,158833.75
2022-10-07T06:09:44.959Z,158944.41
2022-10-07T06:12:36.973Z,159043.06
2022-10-07T06:15:10.708Z,159149.75
2022-10-07T06:17:44.438Z,159228.47
2022-10-07T06:20:15.496Z,159300.53
2022-10-07T06:22:44.568Z,159372.59
2022-10-07T06:25:14.781Z,159443.34
2022-10-07T06:27:45.092Z,159523.50
2022-10-07T06:30:16.231Z,159584.88
2022-10-07T06:32:45.272Z,159669.03
2022-10-07T06:35:14.269Z,159747.94
2022-10-07T06:37:43.111Z,159805.38
2022-10-07T06:40:12.486Z,159877.53
2022-10-07T06:42:41.142Z,159951.00
2022-10-07T06:45:44.364Z,160043.25
2022-10-07T06:48:14.734Z,160099.47
2022-10-07T06:50:53.268Z,160186.41
2022-10-07T06:53:22.669Z,160214.50
2022-10-07T06:55:52.306Z,160280.03
2022-10-07T06:58:22.611Z,160328.22
2022-10-07T07:00:52.670Z,160383.13
2022-10-07T07:03:24.357Z,160439.34
2022-10-07T07:05:54.491Z,160459.38
2022-10-07T07:08:32.551Z,160454.06
2022-10-07T07:11:06.264Z,160508.91
2022-10-07T07:13:36.456Z,160597.28
2022-10-07T07:16:05.131Z,160620.03
2022-10-07T07:18:35.154Z,160603.97
2022-10-07T07:21:03.644Z,160630.75
2022-10-07T07:23:34.100Z,160605.31
2022-10-07T07:26:01.819Z,160660.22
2022-10-07T07:28:31.610Z,160721.81
2022-10-07T07:31:00.599Z,160787.50
2022-10-07T07:33:29.528Z,160802.22
2022-10-07T07:35:57.819Z,160886.63
2022-10-07T07:38:26.120Z,160956.31
2022-10-07T07:40:55.666Z,160968.34
2022-10-07T07:43:24.013Z,160971.09
2022-10-07T07:45:51.890Z,160969.75
2022-10-07T07:48:19.974Z,160972.41
2022-10-07T07:50:48.001Z,160964.34
2022-10-07T07:53:16.550Z,160920.13
2022-10-07T07:55:57.133Z,160991.19
2022-10-07T07:58:26.737Z,161046.09
2022-10-07T08:01:16.902Z,161066.22
2022-10-07T08:03:47.629Z,161028.72
2022-10-07T08:06:18.315Z,160992.53
2022-10-07T08:08:47.642Z,160985.81
2022-10-07T08:11:20.359Z,161007.28
2022-10-07T08:13:51.754Z,161066.22
2022-10-07T08:16:23.619Z,161078.31
2022-10-07T08:18:55.554Z,161091.72
2022-10-07T08:21:27.394Z,161078.31
2022-10-07T08:24:00.792Z,161131.88
2022-10-07T08:26:33.313Z,161135.94
2022-10-07T08:29:03.972Z,161145.28
2022-10-07T08:31:33.606Z,161212.34
2022-10-07T08:34:02.320Z,161274.09
2022-10-07T08:36:32.994Z,161257.97
2022-10-07T08:39:02.178Z,161294.19
2022-10-07T08:41:56.859Z,161331.75
2022-10-07T08:44:30.130Z,161393.44
2022-10-07T08:46:58.255Z,161431.03
2022-10-07T08:49:36.420Z,161376.00
2022-10-07T08:52:30.394Z,161444.44
2022-10-07T08:55:00.544Z,161526.31
2022-10-07T08:57:42.875Z,161571.94
2022-10-07T09:00:12.855Z,161437.72
2022-10-07T09:03:05.872Z,161469.91
2022-10-07T09:05:43.089Z,161401.50
2022-10-07T09:08:15.995Z,161351.88
2022-10-07T09:10:49.783Z,161197.63
2022-10-07T09:13:23.537Z,161247.28
2022-10-07T09:16:18.571Z,161287.47
2022-10-07T09:18:51.110Z,161227.09
2022-10-07T09:21:23.785Z,161248.59
2022-10-07T09:24:13.376Z,161232.47
2022-10-07T09:26:41.849Z,161211.03
2022-10-07T09:29:10.842Z,161225.78
2022-10-07T09:31:40.283Z,161239.25
2022-10-07T09:34:20.190Z,161201.59
2022-10-07T09:37:33.185Z,161206.97
2022-10-07T09:40:21.662Z,161148.00
2022-10-07T09:42:50.296Z,161152.00
2022-10-07T09:45:33.111Z,161186.88
2022-10-07T09:48:15.749Z,161231.09
2022-10-07T09:50:44.817Z,161192.25
2022-10-07T09:53:19.275Z,161156.03
2022-10-07T09:55:48.062Z,161149.34
2022-10-07T09:58:21.509Z,161154.72
2022-10-07T10:00:52.308Z,161196.28
2022-10-07T10:03:21.038Z,161198.94
2022-10-07T10:06:00.408Z,161220.41
2022-10-07T10:08:36.663Z,161240.56
2022-10-07T10:11:28.180Z,161243.22
2022-10-07T10:13:57.085Z,161266.00
2022-10-07T10:16:25.459Z,161287.47
2022-10-07T10:19:04.534Z,161284.81
2022-10-07T10:21:36.071Z,161241.91
2022-10-07T10:24:12.584Z,161263.34
2022-10-07T10:27:04.002Z,161244.56
2022-10-07T10:30:06.037Z,161209.66
2022-10-07T10:32:57.428Z,161262.03
2022-10-07T10:35:28.866Z,161287.47
2022-10-07T10:38:03.305Z,161241.91
2022-10-07T10:40:36.594Z,161262.03
2022-10-07T10:43:20.654Z,161275.44
2022-10-07T10:45:57.597Z,161278.09
2022-10-07T10:48:29.334Z,161245.94
2022-10-07T10:51:13.698Z,161252.66
2022-10-07T10:53:52.014Z,161280.75
2022-10-07T10:56:28.617Z,161296.88
2022-10-07T10:59:15.098Z,161294.19
2022-10-07T11:01:46.071Z,161270.06
2022-10-07T11:04:25.698Z,161300.88
2022-10-07T11:07:21.629Z,161319.69
2022-10-07T11:09:55.650Z,161325.06
2022-10-07T11:12:30.265Z,161310.31
2022-10-07T11:15:06.951Z,161311.63
2022-10-07T11:17:37.868Z,161303.59
2022-10-07T11:20:18.719Z,161342.47
2022-10-07T11:22:57.209Z,161349.19
2022-10-07T11:25:32.258Z,161306.25
2022-10-07T11:28:09.364Z,161351.88
2022-10-07T11:30:49.802Z,161393.44
2022-10-07T11:33:28.886Z,161392.09
2022-10-07T11:36:14.498Z,161396.13
2022-10-07T11:38:42.884Z,161392.09
2022-10-07T11:41:34.134Z,161416.28
2022-10-07T11:44:05.948Z,161444.44
2022-10-07T11:46:41.004Z,161447.09
2022-10-07T11:49:18.374Z,161445.78
2022-10-07T11:51:55.257Z,161452.47
2022-10-07T11:54:27.753Z,161465.91
2022-10-07T11:57:00.641Z,161432.34
2022-10-07T11:59:35.123Z,161436.34
2022-10-07T12:02:03.859Z,161431.03
2022-10-07T12:04:34.365Z,161451.16
2022-10-07T12:07:33.454Z,161418.94
2022-10-07T12:10:03.976Z,161402.84
2022-10-07T12:12:50.365Z,161394.81
2022-10-07T12:15:42.798Z,161417.59
2022-10-07T12:18:18.087Z,161445.78
2022-10-07T12:20:53.526Z,161444.44
2022-10-07T12:23:22.345Z,161461.84
2022-10-07T12:26:30.559Z,161468.56
2022-10-07T12:28:58.887Z,161453.81
2022-10-07T12:31:32.630Z,161392.09
2022-10-07T12:34:07.844Z,161406.84
2022-10-07T12:36:38.811Z,161451.16
2022-10-07T12:39:12.463Z,161460.53
2022-10-07T12:41:43.281Z,161472.63
2022-10-07T12:44:37.061Z,161453.81
2022-10-07T12:47:28.788Z,161459.19
2022-10-07T12:50:03.664Z,161472.63
2022-10-07T12:52:54.961Z,161486.00
2022-10-07T12:55:37.346Z,161492.75
2022-10-07T12:58:42.581Z,161504.84
2022-10-07T13:01:48.419Z,161439.06
2022-10-07T13:04:41.430Z,161456.47
2022-10-07T13:07:30.968Z,161464.53
2022-10-07T13:10:26.566Z,161435.00
2022-10-07T13:12:56.586Z,161439.06
2022-10-07T13:15:47.727Z,161385.38
2022-10-07T13:18:23.241Z,161394.81
2022-10-07T13:21:03.321Z,161396.13
2022-10-07T13:23:32.458Z,161401.50
2022-10-07T13:26:03.109Z,161408.19
2022-10-07T13:28:45.798Z,161413.56
2022-10-07T13:31:21.145Z,161416.28
2022-10-07T13:33:50.204Z,161374.69
2022-10-07T13:36:35.220Z,161397.47
2022-10-07T13:39:23.249Z,161392.09
2022-10-07T13:41:56.482Z,161400.13
2022-10-07T13:44:27.126Z,161394.81
2022-10-07T13:46:58.565Z,161397.47
2022-10-07T13:49:30.613Z,161384.06
2022-10-07T13:52:01.589Z,161397.47
2022-10-07T13:54:31.782Z,161390.75
2022-10-07T13:57:02.543Z,161393.44
2022-10-07T13:59:36.956Z,161396.13
2022-10-07T14:02:05.519Z,161376.00
2022-10-07T14:04:34.334Z,161354.56
2022-10-07T14:07:21.992Z,161347.84
2022-10-07T14:10:08.977Z,161326.38
2022-10-07T14:12:46.593Z,161307.59
2022-10-07T14:15:19.955Z,161291.50
2022-10-07T14:17:51.906Z,161299.56
2022-10-07T14:20:25.581Z,161278.09
2022-10-07T14:22:55.892Z,161274.09
2022-10-07T14:25:29.342Z,161262.03
2022-10-07T14:27:58.096Z,161244.56
2022-10-07T14:30:59.978Z,161224.44
2022-10-07T14:34:25.739Z,161201.59
2022-10-07T14:37:15.961Z,161196.28
2022-10-07T14:39:49.819Z,161188.19
2022-10-07T14:42:22.319Z,161204.31
2022-10-07T14:44:50.834Z,161196.28
2022-10-07T14:47:21.408Z,161161.41
2022-10-07T14:49:49.571Z,161154.72
2022-10-07T14:52:21.896Z,161129.22
2022-10-07T14:54:51.589Z,161118.53
2022-10-07T14:57:19.666Z,161103.72
2022-10-07T14:59:50.586Z,161102.41
2022-10-07T15:02:19.437Z,161098.41
2022-10-07T15:04:48.029Z,161080.97
2022-10-07T15:07:16.854Z,161070.25
2022-10-07T15:09:47.230Z,161058.19
2022-10-07T15:12:16.620Z,161047.50
2022-10-07T15:14:44.502Z,161038.06
2022-10-07T15:17:13.218Z,161034.09
2022-10-07T15:19:42.011Z,161019.34
2022-10-07T15:22:10.368Z,161003.22
2022-10-07T15:24:39.023Z,160976.41
2022-10-07T15:27:10.020Z,160964.34
2022-10-07T15:29:38.349Z,160944.22
2022-10-07T15:32:07.888Z,160938.84
2022-10-07T15:34:36.689Z,160918.75
2022-10-07T15:37:04.620Z,160890.63
2022-10-07T15:39:37.447Z,160875.88
2022-10-07T15:42:08.650Z,160853.13
2022-10-07T15:44:37.074Z,160830.34
2022-10-07T15:47:05.030Z,160803.56
2022-10-07T15:49:33.337Z,160783.44
2022-10-07T15:52:02.010Z,160766.06
2022-10-07T15:54:30.860Z,160740.59
2022-10-07T15:56:59.410Z,160708.47
2022-10-07T15:59:27.561Z,160696.41
2022-10-07T16:01:55.819Z,160661.53
2022-10-07T16:04:24.320Z,160642.78
2022-10-07T16:06:52.945Z,160599.94
2022-10-07T16:09:22.678Z,160551.72
2022-10-07T16:11:51.757Z,160480.78
2022-10-07T16:14:19.866Z,160440.69
2022-10-07T16:16:48.502Z,160401.84
2022-10-07T16:19:16.406Z,160341.59
2022-10-07T16:21:44.368Z,160259.97
2022-10-07T16:24:18.358Z,160235.91
2022-10-07T16:26:47.921Z,160197.09
2022-10-07T16:29:36.540Z,160155.63
2022-10-07T16:32:05.161Z,160098.13
2022-10-07T16:34:33.541Z,160063.38
2022-10-07T16:37:01.228Z,160058.06
2022-10-07T16:39:29.266Z,160043.25
2022-10-07T16:41:58.729Z,160055.34
2022-10-07T16:44:28.229Z,160048.63
2022-10-07T16:46:59.900Z,160052.69
2022-10-07T16:49:29.452Z,160049.94
2022-10-07T16:51:58.146Z,160058.06
2022-10-07T16:54:30.026Z,160063.38
2022-10-07T16:56:59.206Z,160058.06
2022-10-07T16:59:27.962Z,160055.34
2022-10-07T17:01:57.498Z,160024.56
2022-10-07T17:04:26.234Z,160000.47
2022-10-07T17:06:54.953Z,159997.81
2022-10-07T17:09:25.073Z,159985.78
2022-10-07T17:11:53.114Z,159961.72
2022-10-07T17:14:22.409Z,159952.38
2022-10-07T17:16:53.511Z,159961.72
2022-10-07T17:19:24.944Z,159975.09
2022-10-07T17:21:55.013Z,159977.75
2022-10-07T17:24:24.666Z,159964.38
2022-10-07T17:26:53.683Z,159971.06
2022-10-07T17:29:26.641Z,159992.47
2022-10-07T17:31:55.299Z,160009.88
2022-10-07T17:34:24.861Z,160024.56
2022-10-07T17:36:55.011Z,160044.63
2022-10-07T17:39:25.282Z,160048.63
2022-10-07T17:41:56.264Z,160059.38
2022-10-07T17:44:27.436Z,160067.41
2022-10-07T17:46:59.777Z,160060.72
2022-10-07T17:49:28.874Z,160082.09
2022-10-07T17:51:59.839Z,160095.47
2022-10-07T17:54:29.794Z,160096.81
2022-10-07T17:56:57.879Z,160092.78
2022-10-07T17:59:27.204Z,160080.78
2022-10-07T18:01:56.556Z,160062.03
2022-10-07T18:04:25.458Z,160066.06
2022-10-07T18:06:53.770Z,160058.06
2022-10-07T18:09:23.471Z,160076.75
2022-10-07T18:12:09.895Z,160059.38
2022-10-07T18:14:56.981Z,160048.63
2022-10-07T18:17:25.618Z,160052.69
2022-10-07T18:19:55.317Z,160052.69
2022-10-07T18:22:24.978Z,160055.34
2022-10-07T18:24:57.631Z,160044.63
2022-10-07T18:27:28.419Z,160040.59
2022-10-07T18:29:57.294Z,160033.91
2022-10-07T18:32:26.420Z,160041.91
2022-10-07T18:34:54.447Z,160031.25
2022-10-07T18:37:24.598Z,160019.22
2022-10-07T18:39:54.330Z,159996.50
2022-10-07T18:42:22.522Z,159987.09
2022-10-07T18:44:50.914Z,159972.41
2022-10-07T18:47:19.184Z,159947.03
2022-10-07T18:49:47.817Z,159924.31
2022-10-07T18:52:16.065Z,159905.59
2022-10-07T18:54:44.003Z,159904.25
2022-10-07T18:57:12.914Z,159904.25
2022-10-07T18:59:40.716Z,159902.94
2022-10-07T19:02:11.832Z,159921.63
2022-10-07T19:04:40.563Z,159929.63
2022-10-07T19:07:09.015Z,159961.72
2022-10-07T19:09:38.080Z,159980.47
2022-10-07T19:12:26.914Z,160023.25
2022-10-07T19:14:54.710Z,160037.94
2022-10-07T19:17:24.383Z,160070.06
2022-10-07T19:19:53.115Z,160102.16
2022-10-07T19:22:21.706Z,160132.91
2022-10-07T19:25:09.641Z,160162.31
2022-10-07T19:27:39.650Z,160175.69
2022-10-07T19:30:08.407Z,160181.06
2022-10-07T19:32:36.743Z,160193.13
2022-10-07T19:35:06.532Z,160213.13
2022-10-07T19:37:34.674Z,160205.13
2022-10-07T19:40:03.673Z,160199.81
2022-10-07T19:42:32.398Z,160205.13
2022-10-07T19:45:01.213Z,160226.50
2022-10-07T19:47:29.613Z,160213.13
2022-10-07T19:49:57.376Z,160231.88
2022-10-07T19:52:27.959Z,160238.56
2022-10-07T19:54:56.386Z,160238.56
2022-10-07T19:57:26.305Z,160227.88
2022-10-07T19:59:55.840Z,160226.50
2022-10-07T20:02:25.980Z,160230.53
2022-10-07T20:04:54.205Z,160210.47
2022-10-07T20:07:24.101Z,160213.13
2022-10-07T20:09:53.109Z,160205.13
2022-10-07T20:12:21.969Z,160195.75
2022-10-07T20:14:50.480Z,160205.13
2022-10-07T20:17:18.426Z,160202.47
2022-10-07T20:19:46.952Z,160207.81
2022-10-07T20:22:16.766Z,160203.78
2022-10-07T20:24:45.250Z,160185.09
2022-10-07T20:27:13.946Z,160190.41
2022-10-07T20:30:00.112Z,160193.13
2022-10-07T20:32:31.557Z,160186.41
2022-10-07T20:35:00.257Z,160193.13
2022-10-07T20:37:28.788Z,160195.75
2022-10-07T20:40:15.910Z,160193.13
2022-10-07T20:42:46.943Z,160181.06
2022-10-07T20:45:16.516Z,160182.38
2022-10-07T20:47:45.378Z,160173.03
2022-10-07T20:50:14.704Z,160179.72
2022-10-07T20:52:45.522Z,160174.38
2022-10-07T20:55:14.548Z,160162.31
2022-10-07T20:57:43.056Z,160166.34
2022-10-07T21:00:16.695Z,160170.34
2022-10-07T21:02:45.491Z,160161.00
2022-10-07T21:05:14.143Z,160166.34
2022-10-07T21:07:43.137Z,160161.00
2022-10-07T21:10:10.953Z,160151.66
2022-10-07T21:12:40.668Z,160138.28
2022-10-07T21:15:09.273Z,160134.22
2022-10-07T21:17:37.551Z,160139.59
2022-10-07T21:20:06.419Z,160152.97
2022-10-07T21:22:36.867Z,160138.28
2022-10-07T21:25:05.455Z,160123.56
2022-10-07T21:27:33.446Z,160134.22
2022-10-07T21:30:01.825Z,160143.63
2022-10-07T21:32:29.693Z,160131.56
2022-10-07T21:34:57.992Z,160119.53
2022-10-07T21:37:26.735Z,160131.56
2022-10-07T21:39:54.684Z,160126.22
2022-10-07T21:42:22.844Z,160122.22
2022-10-07T21:44:51.125Z,160092.78
2022-10-07T21:47:19.134Z,160111.50
2022-10-07T21:49:47.205Z,160108.84
2022-10-07T21:52:15.842Z,160110.19
2022-10-07T21:54:43.624Z,160111.50
2022-10-07T21:57:11.620Z,160119.53
2022-10-07T21:59:39.597Z,160106.16
2022-10-07T22:02:08.897Z,160108.84
2022-10-07T22:04:37.544Z,160103.50
2022-10-07T22:07:24.022Z,160092.78
2022-10-07T22:09:51.778Z,160091.44
2022-10-07T22:12:20.041Z,160091.44
2022-10-07T22:14:47.934Z,160092.78
2022-10-07T22:17:16.160Z,160100.84
2022-10-07T22:19:44.413Z,160095.47
2022-10-07T22:22:13.420Z,160094.16
2022-10-07T22:24:41.172Z,160079.44
2022-10-07T22:27:09.293Z,160066.06
2022-10-07T22:29:38.515Z,160055.34
2022-10-07T22:32:06.751Z,160033.91
2022-10-07T22:34:53.433Z,160025.88
2022-10-07T22:37:21.420Z,160028.53
2022-10-07T22:39:49.817Z,160007.16
2022-10-07T22:42:18.752Z,160005.84
2022-10-07T22:44:47.182Z,160007.16
2022-10-07T22:47:16.725Z,160004.50
2022-10-07T22:49:44.598Z,159996.50
2022-10-07T22:52:12.899Z,159959.03
2022-10-07T22:54:40.893Z,159971.06
2022-10-07T22:57:09.059Z,159983.13
2022-10-07T22:59:38.878Z,159957.69
2022-10-07T23:02:07.443Z,159961.72
2022-10-07T23:04:35.316Z,159944.31
2022-10-07T23:07:03.254Z,159949.69
2022-10-07T23:09:31.730Z,159941.66
2022-10-07T23:11:59.758Z,159943.00
2022-10-07T23:14:27.666Z,159928.31
2022-10-07T23:16:56.129Z,159928.31
2022-10-07T23:19:23.878Z,159928.31
2022-10-07T23:21:51.512Z,159932.34
2022-10-07T23:24:20.178Z,159945.72
2022-10-07T23:26:48.053Z,159935.00
2022-10-07T23:29:16.446Z,159921.63
2022-10-07T23:31:45.047Z,159917.63
2022-10-07T23:34:14.116Z,159896.25
2022-10-07T23:36:42.263Z,159884.19
2022-10-07T23:39:10.713Z,159848.13
2022-10-07T23:41:38.562Z,159834.75
2022-10-07T23:44:06.593Z,159796.00
2022-10-07T23:46:36.749Z,159741.25
2022-10-07T23:49:05.264Z,159690.44
2022-10-07T23:51:33.493Z,159658.34
2022-10-07T23:54:04.676Z,159626.28
2022-10-07T23:56:32.447Z,159603.59
2022-10-07T23:59:01.779Z,159563.50
